Time;durP1;ratioP1;P1;durP2;ratioP2;P2;SDS_P1;SDS_P2;PMS_P1;PMS_P2;Temp;Humidity;BMP_temperature;BMP_pressure;BME280_temperature;BME280_humidity;BME280_pressure;Samples;Min_cycle;Max_cycle;Signal;HPM_P1;HPM_P2
2020/12/27 00:01:29;;;;;;;7.05;4.65;;;;;;;-1.13;64.91;96621.44;5035866;28;20053;-79
2020/12/27 00:03:56;;;;;;;9.93;4.93;;;;;;;-1.16;64.71;96608.84;5034692;28;20049;-78
2020/12/27 00:06:26;;;;;;;9.18;4.93;;;;;;;-1.19;65.56;96610.81;5034278;28;20053;-79
2020/12/27 00:08:52;;;;;;;8.00;4.43;;;;;;;-1.19;65.71;96609.06;5034350;28;20045;-79
2020/12/27 00:11:19;;;;;;;8.23;3.60;;;;;;;-1.20;65.47;96599.75;5035076;28;20041;-79
2020/12/27 00:13:45;;;;;;;7.10;4.00;;;;;;;-1.23;65.28;96602.50;5034876;28;20087;-79
2020/12/27 00:16:12;;;;;;;6.50;3.67;;;;;;;-1.32;65.04;96588.63;5034214;28;20519;-80
2020/12/27 00:18:38;;;;;;;6.57;3.75;;;;;;;-1.36;65.81;96584.66;5033853;28;20049;-79
2020/12/27 00:21:12;;;;;;;6.82;4.00;;;;;;;-1.39;65.56;96584.88;5033741;28;20056;-79
2020/12/27 00:23:38;;;;;;;8.20;4.60;;;;;;;-1.38;66.11;96578.81;5034521;28;20045;-78
2020/12/27 00:26:09;;;;;;;10.93;5.97;;;;;;;-1.41;65.55;96576.50;5033622;28;20057;-79
2020/12/27 00:28:36;;;;;;;7.90;4.25;;;;;;;-1.47;65.84;96569.25;5033312;28;20516;-79
2020/12/27 00:31:03;;;;;;;7.85;4.28;;;;;;;-1.51;65.40;96567.81;5033872;28;20057;-78
2020/12/27 00:33:30;;;;;;;7.22;3.90;;;;;;;-1.57;65.93;96563.16;5034067;28;20056;-79
2020/12/27 00:35:57;;;;;;;8.38;4.57;;;;;;;-1.63;65.71;96550.78;5034456;28;20504;-79
2020/12/27 00:38:25;;;;;;;8.48;4.45;;;;;;;-1.71;65.65;96549.56;5034501;28;20049;-79
2020/12/27 00:40:52;;;;;;;8.15;4.68;;;;;;;-1.74;65.96;96542.13;5032921;28;20419;-80
2020/12/27 00:43:19;;;;;;;6.28;3.90;;;;;;;-1.78;65.98;96530.47;5035328;28;20059;-79
2020/12/27 00:45:46;;;;;;;7.43;4.82;;;;;;;-1.82;66.04;96516.25;5034288;28;20056;-79
2020/12/27 00:48:13;;;;;;;6.53;3.38;;;;;;;-1.87;66.54;96505.53;5034190;28;20041;-79
2020/12/27 00:50:39;;;;;;;7.30;3.97;;;;;;;-1.91;66.32;96504.13;5034955;28;20050;-78
2020/12/27 00:53:06;;;;;;;6.40;3.40;;;;;;;-1.96;66.40;96490.84;5036255;28;20045;-80
2020/12/27 00:55:33;;;;;;;7.35;3.35;;;;;;;-1.99;66.98;96496.16;5034610;28;20055;-80
2020/12/27 00:58:00;;;;;;;9.23;5.15;;;;;;;-2.01;66.78;96492.88;5034643;28;20052;-79
2020/12/27 01:00:27;;;;;;;7.30;4.38;;;;;;;-2.02;67.10;96488.72;5035654;28;20063;-80
2020/12/27 01:02:53;;;;;;;8.10;4.72;;;;;;;-2.02;67.06;96481.03;5034177;28;20049;-78
2020/12/27 01:05:20;;;;;;;6.63;4.35;;;;;;;-2.03;66.98;96472.56;5034217;28;20046;-79
2020/12/27 01:07:46;;;;;;;6.15;3.95;;;;;;;-2.07;66.90;96471.97;5033707;28;20055;-79
2020/12/27 01:10:14;;;;;;;10.77;4.75;;;;;;;-2.09;66.83;96478.91;5034265;28;20056;-80
2020/12/27 01:12:41;;;;;;;7.43;3.55;;;;;;;-2.10;66.94;96469.63;5034549;28;20431;-79
2020/12/27 01:15:09;;;;;;;6.32;4.00;;;;;;;-2.09;67.21;96461.03;5034144;28;20515;-79
2020/12/27 01:17:35;;;;;;;9.20;3.90;;;;;;;-2.08;67.04;96462.66;5031887;28;20050;-79
2020/12/27 01:20:02;;;;;;;8.55;5.13;;;;;;;-2.13;67.39;96454.50;5031663;28;20057;-79
2020/12/27 01:22:32;;;;;;;12.52;4.28;;;;;;;-2.17;66.92;96458.19;5031692;28;20041;-80
2020/12/27 01:24:59;;;;;;;11.00;4.57;;;;;;;-2.21;67.05;96461.84;5032387;28;20042;-79
2020/12/27 01:27:25;;;;;;;7.05;4.03;;;;;;;-2.25;67.13;96460.47;5031642;28;20071;-79
2020/12/27 01:29:52;;;;;;;6.13;4.18;;;;;;;-2.32;67.46;96449.84;5033893;28;20053;-78
2020/12/27 01:32:19;;;;;;;7.13;3.92;;;;;;;-2.36;67.53;96432.25;5035605;28;20057;-79
2020/12/27 01:34:46;;;;;;;12.27;4.70;;;;;;;-2.41;68.11;96436.88;5035629;28;20052;-79
2020/12/27 01:37:12;;;;;;;7.57;4.25;;;;;;;-2.43;67.79;96431.88;5041735;28;20042;-77
2020/12/27 01:39:39;;;;;;;5.78;3.67;;;;;;;-2.46;67.73;96421.88;5059722;28;20036;-78
2020/12/27 01:42:05;;;;;;;8.82;3.72;;;;;;;-2.48;67.80;96418.59;5059369;28;20029;-77
2020/12/27 01:44:32;;;;;;;8.63;4.32;;;;;;;-2.51;67.66;96413.72;5059665;28;20052;-78
2020/12/27 01:47:10;;;;;;;10.05;4.03;;;;;;;-2.54;67.96;96398.59;5059034;28;20110;-79
2020/12/27 01:49:37;;;;;;;10.75;5.60;;;;;;;-2.57;68.20;96397.06;5042147;28;20076;-80
2020/12/27 01:52:04;;;;;;;12.43;5.55;;;;;;;-2.57;68.26;96396.25;5038374;28;20496;-80
2020/12/27 01:54:30;;;;;;;7.35;4.30;;;;;;;-2.57;68.29;96389.41;5036588;28;20497;-78
2020/12/27 01:56:58;;;;;;;7.88;4.10;;;;;;;-2.61;67.80;96382.88;5036278;28;20056;-79
2020/12/27 01:59:28;;;;;;;9.32;3.97;;;;;;;-2.65;68.53;96380.66;5035593;28;20136;-79
2020/12/27 02:01:56;;;;;;;10.95;5.40;;;;;;;-2.65;68.46;96378.09;5035137;28;20496;-79
2020/12/27 02:04:24;;;;;;;9.02;4.90;;;;;;;-2.68;68.54;96366.34;5034952;28;20518;-79
2020/12/27 02:06:51;;;;;;;11.13;6.00;;;;;;;-2.69;68.35;96364.72;5035110;28;20530;-79
2020/12/27 02:09:17;;;;;;;8.00;5.05;;;;;;;-2.73;68.50;96360.75;5034587;28;20056;-79
2020/12/27 02:11:44;;;;;;;12.35;5.50;;;;;;;-2.75;68.44;96357.50;5035035;28;20056;-79
2020/12/27 02:14:11;;;;;;;10.23;5.95;;;;;;;-2.77;68.93;96356.78;5034582;28;20053;-79
2020/12/27 02:16:38;;;;;;;9.45;5.03;;;;;;;-2.76;68.98;96337.97;5037319;28;20042;-80
2020/12/27 02:19:09;;;;;;;8.88;4.10;;;;;;;-2.73;68.93;96327.56;5037997;28;20056;-80
2020/12/27 02:21:37;;;;;;;14.15;6.40;;;;;;;-2.69;68.74;96326.41;5038101;28;20055;-79
2020/12/27 02:24:04;;;;;;;9.45;5.32;;;;;;;-2.69;68.95;96321.31;5038097;28;20499;-79
2020/12/27 02:26:31;;;;;;;10.90;5.35;;;;;;;-2.71;68.61;96305.31;5036239;28;20414;-79
2020/12/27 02:28:58;;;;;;;11.05;4.85;;;;;;;-2.75;68.55;96309.00;5049005;28;20105;-77
2020/12/27 02:31:26;;;;;;;7.78;4.78;;;;;;;-2.80;68.44;96298.25;5058962;28;20040;-77
2020/12/27 02:33:53;;;;;;;9.63;5.28;;;;;;;-2.83;68.56;96296.75;5058855;28;20056;-78
2020/12/27 02:36:20;;;;;;;9.20;5.97;;;;;;;-2.83;68.95;96285.72;5043842;28;20053;-79
2020/12/27 02:38:47;;;;;;;8.85;4.50;;;;;;;-2.84;68.73;96278.97;5036615;28;20049;-80
2020/12/27 02:41:16;;;;;;;9.60;4.90;;;;;;;-2.83;69.12;96268.66;5034721;28;20056;-81
2020/12/27 02:43:43;;;;;;;11.38;6.22;;;;;;;-2.80;69.41;96259.97;5045395;28;20420;-81
2020/12/27 02:46:20;;;;;;;11.30;5.90;;;;;;;-2.80;69.14;96255.72;5045970;28;20124;-79
2020/12/27 02:48:47;;;;;;;11.85;6.28;;;;;;;-2.77;69.10;96244.47;5046122;28;20061;-80
2020/12/27 02:51:14;;;;;;;11.05;5.47;;;;;;;-2.79;69.28;96236.91;5045538;28;20136;-79
2020/12/27 02:53:40;;;;;;;9.73;5.90;;;;;;;-2.79;69.50;96233.53;5038491;28;20053;-80
2020/12/27 02:56:07;;;;;;;12.15;6.82;;;;;;;-2.80;69.42;96229.34;5035908;28;20045;-79
2020/12/27 02:58:34;;;;;;;11.85;7.00;;;;;;;-2.79;69.30;96225.88;5034849;28;20423;-79
2020/12/27 03:01:01;;;;;;;10.52;6.90;;;;;;;-2.79;69.53;96220.78;5034272;28;20051;-79
2020/12/27 03:03:27;;;;;;;12.82;7.25;;;;;;;-2.79;69.73;96221.59;5034318;28;20063;-79
2020/12/27 03:05:54;;;;;;;12.50;6.80;;;;;;;-2.78;69.68;96212.19;5034367;28;20128;-79
2020/12/27 03:08:20;;;;;;;9.95;6.32;;;;;;;-2.77;70.08;96208.72;5034241;28;20045;-78
2020/12/27 03:10:47;;;;;;;15.13;6.82;;;;;;;-2.73;70.21;96200.72;5033780;28;20054;-79
2020/12/27 03:13:13;;;;;;;12.57;7.20;;;;;;;-2.70;70.05;96194.59;5033855;28;20406;-79
2020/12/27 03:15:41;;;;;;;13.15;7.93;;;;;;;-2.68;70.13;96179.97;5033984;28;20049;-79
2020/12/27 03:18:07;;;;;;;13.82;7.78;;;;;;;-2.66;70.44;96170.47;5033807;28;20518;-79
2020/12/27 03:20:34;;;;;;;13.43;8.52;;;;;;;-2.66;70.58;96157.69;5033479;28;20057;-79
2020/12/27 03:23:00;;;;;;;13.13;8.18;;;;;;;-2.64;70.59;96144.84;5033598;28;20045;-79
2020/12/27 03:25:27;;;;;;;11.85;7.15;;;;;;;-2.67;70.30;96127.16;5033725;28;20176;-79
2020/12/27 03:27:53;;;;;;;14.48;8.02;;;;;;;-2.72;70.61;96124.94;5033679;28;20427;-79
2020/12/27 03:30:20;;;;;;;10.18;7.63;;;;;;;-2.73;70.35;96128.44;5033320;28;20053;-79
2020/12/27 03:32:47;;;;;;;10.20;7.47;;;;;;;-2.78;71.23;96121.09;5033461;28;20052;-79
2020/12/27 03:35:14;;;;;;;10.52;6.88;;;;;;;-2.79;70.94;96118.66;5033449;28;20128;-79
2020/12/27 03:37:41;;;;;;;10.02;6.75;;;;;;;-2.83;70.45;96101.94;5033510;28;20387;-79
2020/12/27 03:40:08;;;;;;;12.93;7.50;;;;;;;-2.88;70.92;96098.94;5032742;28;20530;-79
2020/12/27 03:42:35;;;;;;;12.25;8.15;;;;;;;-2.91;70.80;96090.56;5032888;28;20053;-79
2020/12/27 03:45:02;;;;;;;12.73;7.80;;;;;;;-2.95;71.13;96084.06;5033172;28;20053;-78
2020/12/27 03:47:28;;;;;;;12.07;8.63;;;;;;;-2.91;71.32;96082.06;5033356;28;20060;-79
2020/12/27 03:49:56;;;;;;;13.40;8.32;;;;;;;-2.91;71.43;96070.16;5032894;28;20050;-79
2020/12/27 03:52:22;;;;;;;14.32;8.30;;;;;;;-2.90;71.62;96069.22;5032724;28;20061;-79
2020/12/27 03:54:49;;;;;;;11.93;7.68;;;;;;;-2.92;71.42;96058.28;5033214;28;20049;-79
2020/12/27 03:57:15;;;;;;;12.35;7.40;;;;;;;-2.92;71.53;96063.41;5033098;28;20053;-79
2020/12/27 03:59:42;;;;;;;11.20;7.97;;;;;;;-2.95;71.51;96057.72;5032621;28;20045;-79
2020/12/27 04:02:08;;;;;;;14.77;8.77;;;;;;;-2.96;71.46;96064.53;5032723;28;20052;-79
2020/12/27 04:04:35;;;;;;;13.93;8.43;;;;;;;-2.97;71.66;96060.38;5032910;28;20060;-79
2020/12/27 04:07:04;;;;;;;12.40;9.13;;;;;;;-2.96;71.61;96051.78;5032666;28;20061;-80
2020/12/27 04:09:31;;;;;;;11.38;7.65;;;;;;;-2.95;71.52;96050.88;5032448;28;20052;-79
2020/12/27 04:11:57;;;;;;;12.13;8.10;;;;;;;-2.91;71.87;96051.44;5032436;28;20058;-79
2020/12/27 04:14:24;;;;;;;11.73;7.40;;;;;;;-2.89;71.57;96054.69;5032829;28;20518;-78
2020/12/27 04:16:51;;;;;;;14.52;9.15;;;;;;;-2.90;71.76;96048.78;5032705;28;20046;-79
2020/12/27 04:19:17;;;;;;;14.32;8.30;;;;;;;-2.85;71.85;96047.66;5032616;28;20049;-79
2020/12/27 04:21:44;;;;;;;13.15;8.45;;;;;;;-2.81;71.37;96038.84;5032945;28;20277;-79
2020/12/27 04:24:13;;;;;;;15.95;9.27;;;;;;;-2.81;71.60;96034.53;5032368;28;20045;-79
2020/12/27 04:26:39;;;;;;;11.00;7.88;;;;;;;-2.82;71.62;96027.81;5032290;28;20496;-79
2020/12/27 04:29:06;;;;;;;14.40;8.70;;;;;;;-2.84;71.39;96016.91;5032096;28;20050;-79
2020/12/27 04:31:33;;;;;;;14.30;8.02;;;;;;;-2.85;71.54;96005.06;5032589;28;20055;-78
2020/12/27 04:33:59;;;;;;;12.10;7.63;;;;;;;-2.85;71.45;96006.81;5032368;28;20049;-79
2020/12/27 04:36:26;;;;;;;16.50;8.45;;;;;;;-2.85;71.38;95991.50;5032217;28;20484;-79
2020/12/27 04:38:53;;;;;;;13.10;7.50;;;;;;;-2.86;71.56;95980.47;5032197;28;20046;-79
2020/12/27 04:41:20;;;;;;;13.90;7.75;;;;;;;-2.90;71.57;95969.66;5032071;28;20392;-79
2020/12/27 04:43:48;;;;;;;12.00;7.45;;;;;;;-2.93;71.59;95959.72;5031994;28;20056;-78
2020/12/27 04:46:16;;;;;;;12.65;7.18;;;;;;;-2.94;72.23;95963.16;5032297;28;20045;-79
2020/12/27 04:48:44;;;;;;;12.13;7.85;;;;;;;-2.91;72.05;95952.75;5032074;28;20049;-79
2020/12/27 04:51:13;;;;;;;11.43;7.53;;;;;;;-2.90;71.67;95944.16;5031690;28;20057;-78
2020/12/27 04:53:41;;;;;;;14.25;8.48;;;;;;;-2.93;71.80;95936.75;5032088;28;20077;-79
2020/12/27 04:56:08;;;;;;;9.43;6.70;;;;;;;-2.95;71.89;95936.03;5032063;28;20056;-79
2020/12/27 04:58:35;;;;;;;10.80;7.43;;;;;;;-2.95;71.97;95925.84;5032118;28;20047;-79
2020/12/27 05:01:03;;;;;;;9.98;6.95;;;;;;;-2.95;71.84;95915.63;5031764;28;20057;-78
2020/12/27 05:03:30;;;;;;;12.15;7.78;;;;;;;-2.95;72.04;95907.97;5032293;28;20512;-79
2020/12/27 05:05:57;;;;;;;10.60;7.00;;;;;;;-2.94;71.91;95909.56;5036068;28;20053;-79
2020/12/27 05:08:24;;;;;;;10.88;7.80;;;;;;;-2.90;72.13;95900.75;5035909;28;20052;-79
2020/12/27 05:10:50;;;;;;;18.30;7.22;;;;;;;-2.85;72.15;95907.28;5035920;28;20057;-79
2020/12/27 05:13:17;;;;;;;12.55;6.95;;;;;;;-2.85;72.21;95904.72;5036140;28;20049;-79
2020/12/27 05:15:45;;;;;;;9.25;6.78;;;;;;;-2.84;72.05;95896.13;5036314;28;20048;-79
2020/12/27 05:18:13;;;;;;;10.23;7.95;;;;;;;-2.84;71.74;95893.56;5035923;28;20055;-78
2020/12/27 05:20:41;;;;;;;12.30;6.90;;;;;;;-2.80;71.94;95890.69;5035313;28;20501;-79
2020/12/27 05:23:09;;;;;;;10.70;6.93;;;;;;;-2.79;72.08;95883.84;5035476;28;20045;-79
2020/12/27 05:25:38;;;;;;;15.35;7.75;;;;;;;-2.79;71.45;95884.63;5035623;28;20054;-79
2020/12/27 05:28:07;;;;;;;11.07;6.95;;;;;;;-2.81;71.94;95875.47;5045104;28;20061;-79
2020/12/27 05:30:34;;;;;;;8.90;6.45;;;;;;;-2.82;72.19;95887.44;5052173;28;20045;-81
2020/12/27 05:33:10;;;;;;;10.38;6.40;;;;;;;-2.82;71.82;95872.13;5042919;28;20048;-79
2020/12/27 05:35:37;;;;;;;12.55;7.15;;;;;;;-2.85;71.84;95867.22;5038866;28;20045;-80
2020/12/27 05:38:05;;;;;;;9.07;6.30;;;;;;;-2.88;71.90;95864.13;5037242;28;20084;-80
2020/12/27 05:40:35;;;;;;;9.27;6.40;;;;;;;-2.88;72.27;95853.91;5036179;28;20495;-79
2020/12/27 05:43:13;;;;;;;11.55;6.90;;;;;;;-2.88;71.78;95853.91;5036092;28;20053;-79
2020/12/27 05:45:40;;;;;;;9.45;6.90;;;;;;;-2.87;71.81;95850.41;5035945;28;20046;-80
2020/12/27 05:48:08;;;;;;;10.77;7.03;;;;;;;-2.87;72.17;95850.41;5035481;28;20064;-79
2020/12/27 05:50:38;;;;;;;9.15;6.35;;;;;;;-2.91;72.24;95850.66;5045993;28;20037;-78
2020/12/27 05:53:15;;;;;;;9.32;6.43;;;;;;;-2.93;72.50;95842.31;5060393;28;20048;-76
2020/12/27 05:55:45;;;;;;;12.73;6.80;;;;;;;-2.92;72.42;95843.94;5060746;28;20035;-78
2020/12/27 05:58:17;;;;;;;9.38;6.03;;;;;;;-2.89;72.22;95837.78;5060229;28;20049;-77
2020/12/27 06:00:44;;;;;;;9.80;6.53;;;;;;;-2.85;72.33;95833.25;5060150;28;20033;-78
2020/12/27 06:03:19;;;;;;;10.85;7.05;;;;;;;-2.85;72.22;95823.84;5050427;28;20046;-79
2020/12/27 06:06:02;;;;;;;9.45;5.80;;;;;;;-2.87;72.13;95817.25;5059198;28;20093;-78
2020/12/27 06:09:02;;;;;;;13.52;7.47;;;;;;;-2.92;72.25;95808.19;5060278;28;20068;-77
2020/12/27 06:11:36;;;;;;;9.25;6.45;;;;;;;-2.93;72.44;95801.50;5060320;28;20041;-76
2020/12/27 06:14:40;;;;;;;11.13;7.22;;;;;;;-2.95;72.78;95798.25;5059889;28;20073;-77
2020/12/27 06:17:10;;;;;;;;;;;;;;;-2.91;72.48;95788.59;5059328;28;20064;-77
2020/12/27 06:19:55;;;;;;;11.10;7.03;;;;;;;-2.95;72.59;95782.94;5058784;28;19911;-77
2020/12/27 06:22:27;;;;;;;11.98;7.10;;;;;;;-2.94;72.39;95768.41;5059325;28;20033;-76
2020/12/27 06:24:57;;;;;;;8.18;5.85;;;;;;;-2.96;72.38;95757.53;5053909;28;20049;-78
2020/12/27 06:27:26;;;;;;;9.60;6.47;;;;;;;-2.98;72.06;95749.97;5053802;28;20033;-77
2020/12/27 06:29:58;;;;;;;9.60;5.95;;;;;;;-3.00;72.10;95733.16;5059033;28;20040;-77
2020/12/27 06:32:28;;;;;;;11.57;6.78;;;;;;;-3.02;72.39;95740.94;5059543;28;20040;-78
2020/12/27 06:34:55;;;;;;;12.18;7.45;;;;;;;-3.04;72.28;95730.06;5058784;28;20040;-81
2020/12/27 06:37:22;;;;;;;22.55;7.93;;;;;;;-3.06;72.45;95714.06;5045894;28;20050;-79
2020/12/27 06:39:48;;;;;;;13.30;7.10;;;;;;;-3.08;72.43;95713.38;5059062;28;20056;-78
2020/12/27 06:42:18;;;;;;;8.15;6.00;;;;;;;-3.11;72.17;95701.63;5056072;28;20048;-79
2020/12/27 06:44:45;;;;;;;11.52;6.95;;;;;;;-3.13;72.73;95708.63;5056402;28;20053;-79
2020/12/27 06:47:13;;;;;;;10.93;7.03;;;;;;;-3.12;72.69;95689.81;5053859;28;20049;-81
2020/12/27 06:49:40;;;;;;;9.45;6.43;;;;;;;-3.15;72.82;95705.38;5042909;28;20060;-80
2020/12/27 06:52:19;;;;;;;13.43;6.90;;;;;;;-3.15;72.86;95704.56;5042098;28;20057;-79
2020/12/27 06:54:48;;;;;;;8.82;6.40;;;;;;;-3.13;72.53;95702.69;5038436;28;20056;-81
2020/12/27 06:57:46;;;;;;;11.13;6.55;;;;;;;-3.15;72.79;95707.94;5036715;28;20416;-78
2020/12/27 07:00:20;;;;;;;8.20;5.85;;;;;;;-3.15;73.19;95697.72;5035787;28;20080;-79
2020/12/27 07:02:47;;;;;;;9.02;6.18;;;;;;;-3.17;72.56;95691.09;5035362;28;20052;-78
2020/12/27 07:05:30;;;;;;;8.85;6.57;;;;;;;-3.21;73.10;95674.44;5034796;28;20056;-79
2020/12/27 07:08:02;;;;;;;10.80;7.10;;;;;;;-3.22;72.76;95677.91;5034996;28;20049;-80
2020/12/27 07:10:30;;;;;;;11.05;7.35;;;;;;;-3.23;72.79;95677.09;5034249;28;20064;-81
2020/12/27 07:26:27;;;;;;;13.65;7.60;;;;;;;-3.08;73.14;95658.97;6064275;23;20024;-82
2020/12/27 07:29:02;;;;;;;9.88;7.25;;;;;;;-3.06;73.15;95657.94;4998303;28;20158;-82
2020/12/27 07:31:46;;;;;;;13.80;7.47;;;;;;;-3.03;73.10;95646.66;4998631;28;20101;-82
2020/12/27 07:34:28;;;;;;;17.73;8.95;;;;;;;-2.99;73.44;95648.84;4999153;28;20081;-82
2020/12/27 07:37:06;;;;;;;10.05;7.38;;;;;;;-2.98;73.25;95642.00;4999429;28;20053;-82
2020/12/27 07:44:55;;;;;;;8.30;6.38;;;;;;;-2.91;72.90;95613.34;5531359;22;20440;-81
2020/12/27 07:47:28;;;;;;;9.65;6.05;;;;;;;-2.88;72.79;95603.81;5579078;22;20102;-83
2020/12/27 07:50:07;;;;;;;8.95;6.18;;;;;;;-2.91;72.86;95592.94;5037438;28;20038;-83
2020/12/27 07:55:40;;;;;;;9.52;6.60;;;;;;;-2.85;72.73;95591.59;4978612;28;20135;-84
2020/12/27 07:58:18;;;;;;;8.70;6.18;;;;;;;-2.82;73.14;95585.44;5388855;22;20088;-84
2020/12/27 08:01:05;;;;;;;9.50;6.00;;;;;;;-2.79;72.74;95577.56;5847208;22;21739;-84
2020/12/27 08:06:17;;;;;;;10.88;6.78;;;;;;;-2.83;72.52;95565.97;5042344;23;20054;-83
2020/12/27 08:11:32;;;;;;;9.27;6.07;;;;;;;-2.77;71.92;95545.06;5473014;22;20057;-84
2020/12/27 08:14:08;;;;;;;10.57;5.75;;;;;;;-2.71;72.09;95542.00;5057827;28;20050;-84
2020/12/27 08:16:55;;;;;;;10.38;6.32;;;;;;;-2.70;71.79;95541.06;5058107;28;20038;-84
2020/12/27 08:30:38;;;;;;;8.23;5.65;;;;;;;-2.52;71.41;95506.34;4962970;29;20100;-83
2020/12/27 08:33:23;;;;;;;9.15;6.25;;;;;;;-2.50;71.39;95491.69;4962570;28;20047;-82
2020/12/27 08:36:15;;;;;;;9.35;5.65;;;;;;;-2.45;71.78;95482.84;5364107;23;20058;-82
2020/12/27 08:39:00;;;;;;;9.65;6.15;;;;;;;-2.40;71.97;95470.50;4998537;28;20050;-82
2020/12/27 08:41:49;;;;;;;7.63;5.50;;;;;;;-2.37;71.30;95462.59;5000864;28;20046;-82
2020/12/27 08:44:52;;;;;;;9.15;5.55;;;;;;;-2.36;71.15;95456.53;5005264;28;20054;-82
2020/12/27 08:47:42;;;;;;;12.45;7.72;;;;;;;-2.32;71.37;95447.66;5019778;28;20061;-83
2020/12/27 09:01:01;;;;;;;8.50;5.72;;;;;;;-2.11;70.81;95461.16;5680533;23;20096;-80
2020/12/27 09:03:28;;;;;;;8.80;5.38;;;;;;;-2.11;70.69;95461.16;5014144;28;20050;-79
2020/12/27 09:05:54;;;;;;;7.55;4.25;;;;;;;-2.08;70.68;95463.47;5013491;28;20487;-80
2020/12/27 09:08:21;;;;;;;8.75;5.95;;;;;;;-2.07;70.61;95457.41;5012967;28;20046;-80
2020/12/27 09:10:48;;;;;;;10.80;6.40;;;;;;;-2.07;70.39;95446.38;5012590;28;20069;-78
2020/12/27 09:13:15;;;;;;;11.18;5.38;;;;;;;-2.07;70.42;95442.09;5013019;28;20056;-79
2020/12/27 09:15:44;;;;;;;10.40;5.63;;;;;;;-2.06;70.65;95440.31;5012892;28;20187;-79
2020/12/27 09:18:13;;;;;;;9.15;5.85;;;;;;;-2.06;70.35;95435.22;5012962;28;20061;-79
2020/12/27 09:20:41;;;;;;;7.97;5.30;;;;;;;-2.05;70.53;95433.50;5012445;28;20531;-79
2020/12/27 09:23:15;;;;;;;8.32;4.68;;;;;;;-2.04;70.45;95435.09;5012939;28;20057;-79
2020/12/27 09:25:44;;;;;;;7.25;5.20;;;;;;;-2.01;70.54;95419.47;5013339;28;20053;-79
2020/12/27 09:28:15;;;;;;;12.55;7.82;;;;;;;-1.96;70.80;95427.56;5012868;28;20076;-79
2020/12/27 09:30:43;;;;;;;9.20;5.35;;;;;;;-1.96;70.46;95420.72;5011932;28;20085;-79
2020/12/27 09:33:11;;;;;;;7.60;5.13;;;;;;;-1.96;70.66;95407.13;5012422;28;20061;-79
2020/12/27 09:35:38;;;;;;;8.00;4.90;;;;;;;-1.93;70.92;95394.06;5012473;28;20057;-78
2020/12/27 09:38:22;;;;;;;8.43;5.60;;;;;;;-1.89;70.62;95395.41;5012252;28;20042;-79
2020/12/27 09:41:01;;;;;;;8.05;5.20;;;;;;;-1.89;70.50;95392.88;5012106;28;20054;-80
2020/12/27 09:43:28;;;;;;;7.32;4.88;;;;;;;-1.86;70.60;95387.47;5014334;28;20053;-80
2020/12/27 09:45:54;;;;;;;7.50;5.32;;;;;;;-1.83;70.60;95382.09;5013854;28;20050;-78
2020/12/27 09:48:30;;;;;;;8.98;6.32;;;;;;;-1.79;70.64;95372.41;5015278;28;20057;-79
2020/12/27 09:50:57;;;;;;;10.32;4.97;;;;;;;-1.74;70.38;95373.63;5014552;28;20049;-79
2020/12/27 09:53:23;;;;;;;8.35;5.47;;;;;;;-1.77;70.55;95361.13;5015659;28;20046;-79
2020/12/27 09:55:50;;;;;;;7.63;5.03;;;;;;;-1.78;70.60;95351.81;5015495;28;20053;-79
2020/12/27 09:58:16;;;;;;;9.10;5.75;;;;;;;-1.77;70.74;95352.63;5015823;28;20061;-79
2020/12/27 10:00:43;;;;;;;8.13;5.40;;;;;;;-1.77;70.72;95335.56;5014891;28;20050;-80
2020/12/27 10:03:10;;;;;;;8.57;5.50;;;;;;;-1.76;70.71;95326.13;5015657;28;20060;-79
2020/12/27 10:05:37;;;;;;;8.48;5.45;;;;;;;-1.75;70.61;95317.50;5015318;28;20053;-78
2020/12/27 10:08:04;;;;;;;8.18;5.15;;;;;;;-1.75;70.75;95307.28;5015598;28;20050;-79
2020/12/27 10:10:30;;;;;;;6.97;4.85;;;;;;;-1.75;70.75;95308.13;5015261;28;20061;-79
2020/12/27 10:12:57;;;;;;;8.23;5.80;;;;;;;-1.74;70.91;95299.47;5015191;28;20049;-79
2020/12/27 10:15:24;;;;;;;7.25;5.57;;;;;;;-1.72;70.80;95295.03;5015855;28;20061;-78
2020/12/27 10:17:51;;;;;;;6.80;4.80;;;;;;;-1.70;70.72;95284.69;5015542;28;20053;-80
2020/12/27 10:20:17;;;;;;;7.53;5.47;;;;;;;-1.73;70.53;95269.59;5015064;28;20046;-80
2020/12/27 10:22:45;;;;;;;8.00;5.35;;;;;;;-1.71;70.84;95271.06;5015024;28;20049;-79
2020/12/27 10:25:11;;;;;;;10.45;5.63;;;;;;;-1.68;70.73;95264.91;5014997;28;20534;-78
2020/12/27 10:27:37;;;;;;;7.63;5.70;;;;;;;-1.64;70.95;95247.50;5014679;28;20050;-79
2020/12/27 10:30:05;;;;;;;7.53;5.22;;;;;;;-1.62;70.84;95237.94;5014708;28;20061;-79
2020/12/27 10:32:31;;;;;;;14.63;9.32;;;;;;;-1.60;70.92;95229.19;5015169;28;20054;-79
2020/12/27 10:34:58;;;;;;;18.63;9.88;;;;;;;-1.56;70.93;95222.06;5015050;28;20049;-79
2020/12/27 10:37:25;;;;;;;9.32;5.80;;;;;;;-1.54;70.67;95217.59;5016756;28;20049;-79
2020/12/27 10:39:52;;;;;;;9.05;6.03;;;;;;;-1.53;71.09;95216.66;5015998;28;20041;-79
2020/12/27 10:42:18;;;;;;;7.45;5.10;;;;;;;-1.50;70.86;95213.81;5016708;28;20049;-79
2020/12/27 10:44:45;;;;;;;8.43;5.13;;;;;;;-1.48;70.65;95206.81;5017180;28;20061;-80
2020/12/27 10:47:12;;;;;;;9.02;5.60;;;;;;;-1.44;71.01;95200.47;5016595;28;20060;-79
2020/12/27 10:49:38;;;;;;;8.65;5.00;;;;;;;-1.38;70.69;95188.84;5016035;28;20046;-79
2020/12/27 10:52:05;;;;;;;13.80;6.43;;;;;;;-1.36;70.32;95185.19;5016147;28;20054;-80
2020/12/27 10:54:31;;;;;;;10.57;5.90;;;;;;;-1.33;70.75;95177.25;5016760;28;20050;-79
2020/12/27 10:56:59;;;;;;;10.73;5.55;;;;;;;-1.31;70.04;95162.56;5029566;28;20038;-78
2020/12/27 10:59:25;;;;;;;9.85;5.00;;;;;;;-1.28;70.15;95161.47;5034356;28;20068;-79
2020/12/27 11:01:53;;;;;;;10.07;5.55;;;;;;;-1.20;70.64;95160.75;5033375;28;20034;-80
2020/12/27 11:04:20;;;;;;;9.20;5.32;;;;;;;-1.13;70.28;95149.00;5030667;28;20046;-80
2020/12/27 11:06:46;;;;;;;8.82;4.63;;;;;;;-1.07;70.04;95130.50;5022108;28;20052;-79
2020/12/27 11:09:13;;;;;;;11.43;5.28;;;;;;;-1.05;69.80;95110.66;5018865;28;20062;-79
2020/12/27 11:11:39;;;;;;;8.45;5.10;;;;;;;-1.04;69.88;95102.84;5016771;28;20049;-80
2020/12/27 11:14:07;;;;;;;8.57;4.68;;;;;;;-1.00;69.59;95094.91;5015636;28;20045;-79
2020/12/27 11:16:34;;;;;;;5.18;4.03;;;;;;;-0.98;69.86;95101.47;5015550;28;20060;-79
2020/12/27 11:19:01;;;;;;;6.05;4.25;;;;;;;-0.91;69.59;95091.44;5015593;28;20046;-78
2020/12/27 11:21:27;;;;;;;6.47;4.13;;;;;;;-0.87;69.08;95083.31;5015371;28;20053;-79
2020/12/27 11:23:54;;;;;;;8.25;4.70;;;;;;;-0.85;69.28;95075.50;5014911;28;20057;-79
2020/12/27 11:26:21;;;;;;;8.02;4.78;;;;;;;-0.82;69.72;95074.41;5015188;28;20058;-79
2020/12/27 11:28:47;;;;;;;8.70;5.38;;;;;;;-0.79;69.38;95068.97;5017628;28;20524;-81
2020/12/27 11:31:16;;;;;;;9.85;5.85;;;;;;;-0.78;69.30;95048.34;5014580;28;20054;-80
2020/12/27 11:33:44;;;;;;;10.95;6.53;;;;;;;-0.77;69.25;95029.44;5014728;28;20056;-78
2020/12/27 11:36:11;;;;;;;9.52;5.38;;;;;;;-0.75;69.34;95019.06;5014911;28;20046;-79
2020/12/27 11:38:38;;;;;;;6.90;4.90;;;;;;;-0.76;69.13;95013.16;5014711;28;20459;-79
2020/12/27 11:41:05;;;;;;;8.15;5.28;;;;;;;-0.74;69.44;95007.88;5024551;28;20048;-81
2020/12/27 11:43:31;;;;;;;8.55;4.72;;;;;;;-0.72;69.51;95004.22;5028505;28;20423;-79
2020/12/27 11:45:58;;;;;;;9.38;5.22;;;;;;;-0.72;69.03;94998.28;5030851;28;20064;-78
2020/12/27 11:48:26;;;;;;;7.47;4.88;;;;;;;-0.71;69.15;94985.31;5024995;28;20054;-79
2020/12/27 11:50:53;;;;;;;7.10;4.88;;;;;;;-0.71;69.20;94971.72;5017522;28;20060;-80
2020/12/27 11:53:19;;;;;;;8.85;4.93;;;;;;;-0.71;68.82;94964.84;5017287;28;20050;-80
2020/12/27 11:55:46;;;;;;;8.95;5.38;;;;;;;-0.69;69.18;94962.94;5016173;28;20054;-79
2020/12/27 11:58:12;;;;;;;7.28;4.93;;;;;;;-0.65;69.38;94950.63;5016672;28;20061;-80
2020/12/27 12:00:39;;;;;;;7.18;4.82;;;;;;;-0.62;69.25;94952.88;5017506;28;20050;-80
2020/12/27 12:03:05;;;;;;;6.43;4.30;;;;;;;-0.62;69.61;94938.31;5016728;28;20050;-78
2020/12/27 12:05:33;;;;;;;6.90;4.43;;;;;;;-0.61;69.12;94923.78;5018699;28;20061;-79
2020/12/27 12:07:59;;;;;;;7.05;4.93;;;;;;;-0.60;69.29;94924.56;5016959;28;20050;-80
2020/12/27 12:10:26;;;;;;;7.13;4.38;;;;;;;-0.62;68.77;94912.69;5021919;28;20052;-79
2020/12/27 12:12:52;;;;;;;6.50;4.90;;;;;;;-0.62;68.78;94917.03;5019199;28;20050;-79
2020/12/27 12:15:19;;;;;;;8.18;4.95;;;;;;;-0.63;68.53;94905.19;5017355;28;20129;-79
2020/12/27 12:17:45;;;;;;;5.35;4.60;;;;;;;-0.65;68.55;94892.53;5016279;28;20077;-80
2020/12/27 12:22:54;;;;;;;7.03;4.85;;;;;;;-0.65;68.65;94868.69;5015977;28;20080;-79
2020/12/27 12:25:20;;;;;;;6.47;4.38;;;;;;;-0.63;68.60;94856.53;5017569;28;20056;-79
2020/12/27 12:27:47;;;;;;;6.88;4.57;;;;;;;-0.60;68.80;94845.19;5016735;28;20054;-79
2020/12/27 12:30:15;;;;;;;6.88;4.10;;;;;;;-0.56;69.35;94839.59;5015615;28;20053;-80